Time;durP1;ratioP1;P1;durP2;ratioP2;P2;SDS_P1;SDS_P2;PMS_P1;PMS_P2;Temp;Humidity;BMP_temperature;BMP_pressure;BME280_temperature;BME280_humidity;BME280_pressure;Samples;Min_cycle;Max_cycle;Signal;HPM_P1;HPM_P2
2023/03/08 00:01:32;;;;;;;17.55;5.60;;;-1.70;99.90;;;;;;5061697;28;20051;-76
2023/03/08 00:03:57;;;;;;;23.92;5.95;;;-1.70;99.90;;;;;;5077828;28;20044;-75
2023/03/08 00:06:24;;;;;;;23.88;6.50;;;-1.70;99.90;;;;;;5078015;28;20125;-75
2023/03/08 00:08:57;;;;;;;23.13;6.63;;;-1.70;99.90;;;;;;5078578;28;20379;-75
2023/03/08 00:11:23;;;;;;;20.67;6.32;;;-1.60;99.90;;;;;;5095628;28;20056;-75
2023/03/08 00:13:49;;;;;;;21.65;6.47;;;-1.70;99.90;;;;;;5095881;28;20055;-75
2023/03/08 00:16:15;;;;;;;22.98;7.18;;;-1.70;99.90;;;;;;5095974;28;20048;-75
2023/03/08 00:18:41;;;;;;;26.67;7.20;;;-1.70;99.90;;;;;;5078409;28;20051;-74
2023/03/08 00:21:12;;;;;;;22.40;7.43;;;-1.70;99.90;;;;;;5095558;28;20048;-75
2023/03/08 00:23:38;;;;;;;30.83;8.15;;;-1.70;99.90;;;;;;5096212;28;20075;-73
2023/03/08 00:26:04;;;;;;;30.00;7.97;;;-1.70;99.90;;;;;;5095261;28;20056;-74
2023/03/08 00:28:31;;;;;;;30.38;7.75;;;-1.70;99.90;;;;;;5061182;28;20093;-74
2023/03/08 00:31:02;;;;;;;29.63;8.07;;;-1.80;99.90;;;;;;5061040;28;20052;-76
2023/03/08 00:33:29;;;;;;;31.38;8.30;;;-1.80;99.90;;;;;;5077654;28;20067;-74
2023/03/08 00:35:58;;;;;;;31.05;7.97;;;-1.80;99.90;;;;;;5076822;28;20051;-75
2023/03/08 00:38:24;;;;;;;29.45;8.20;;;-1.90;99.90;;;;;;5077364;28;20101;-74
2023/03/08 00:40:50;;;;;;;31.27;9.05;;;-1.90;99.90;;;;;;5061074;28;20044;-75
2023/03/08 00:43:16;;;;;;;26.58;7.55;;;-1.90;99.90;;;;;;5077454;28;20046;-74
2023/03/08 00:45:42;;;;;;;24.48;8.77;;;-1.90;99.90;;;;;;5096323;28;20518;-75
2023/03/08 00:48:07;;;;;;;30.40;9.27;;;-1.90;99.90;;;;;;5061835;28;20047;-75
2023/03/08 00:50:33;;;;;;;29.52;8.50;;;-1.90;99.90;;;;;;5096435;28;20071;-75
2023/03/08 00:52:59;;;;;;;28.58;9.27;;;-1.80;99.90;;;;;;5095076;28;20055;-76
2023/03/08 00:55:24;;;;;;;27.33;8.85;;;-1.90;99.90;;;;;;5077516;28;20069;-78
2023/03/08 00:57:50;;;;;;;28.23;9.27;;;-1.80;99.90;;;;;;5076748;28;20040;-74
2023/03/08 01:00:17;;;;;;;29.50;9.48;;;-1.70;99.90;;;;;;5076501;28;20047;-76
2023/03/08 01:02:42;;;;;;;29.10;8.52;;;-1.80;99.90;;;;;;5060546;28;20044;-75
2023/03/08 01:05:08;;;;;;;30.98;9.48;;;-1.80;99.90;;;;;;5094971;28;20495;-76
2023/03/08 01:07:34;;;;;;;29.15;9.77;;;-1.80;99.90;;;;;;5060205;28;20058;-75
2023/03/08 01:10:00;;;;;;;32.50;10.25;;;-1.80;99.90;;;;;;5076559;28;20056;-75
2023/03/08 01:12:26;;;;;;;35.63;10.63;;;-1.80;99.90;;;;;;5060183;28;20036;-74
2023/03/08 01:14:52;;;;;;;35.10;10.80;;;-1.80;99.90;;;;;;5094402;28;20040;-75
2023/03/08 01:17:18;;;;;;;34.15;11.05;;;-1.80;99.90;;;;;;5094385;28;20055;-75
2023/03/08 01:19:44;;;;;;;36.75;12.27;;;-1.90;99.90;;;;;;5059915;28;20044;-74
2023/03/08 01:22:10;;;;;;;39.72;11.65;;;-1.80;99.90;;;;;;5076084;28;20047;-76
2023/03/08 01:24:46;;;;;;;38.00;11.20;;;-1.90;99.90;;;;;;5075680;28;20056;-74
2023/03/08 01:27:12;;;;;;;43.00;12.20;;;-1.90;99.90;;;;;;5076624;28;20087;-76
2023/03/08 01:30:11;;;;;;;37.72;12.80;;;-1.80;99.90;;;;;;5094279;28;20403;-74
2023/03/08 01:32:39;;;;;;;39.85;12.60;;;-1.90;99.90;;;;;;5015428;28;20092;-75
2023/03/08 01:35:05;;;;;;;41.70;12.82;;;-1.80;99.90;;;;;;5015152;28;20057;-74
2023/03/08 01:37:44;;;;;;;39.42;12.35;;;-2.00;99.90;;;;;;5015521;28;20060;-77
2023/03/08 01:40:15;;;;;;;47.60;13.43;;;-2.00;99.90;;;;;;5014770;28;20055;-75
2023/03/08 01:42:41;;;;;;;50.25;14.43;;;-2.00;99.90;;;;;;5036777;28;20431;-74
2023/03/08 01:45:45;;;;;;;49.97;14.77;;;-2.00;99.90;;;;;;5094759;28;20056;-74
2023/03/08 01:48:13;;;;;;;46.40;15.63;;;-2.10;99.90;;;;;;5058497;28;20048;-74
2023/03/08 01:50:39;;;;;;;54.83;15.70;;;-2.10;99.90;;;;;;5076813;28;20087;-74
2023/03/08 01:53:05;;;;;;;52.50;15.32;;;-2.10;99.90;;;;;;5076828;28;20421;-73
2023/03/08 01:55:31;;;;;;;53.92;16.85;;;-2.20;99.90;;;;;;5075632;28;20116;-74
2023/03/08 01:57:57;;;;;;;54.08;16.63;;;-2.20;99.90;;;;;;5093724;28;20048;-74
2023/03/08 02:00:25;;;;;;;59.00;17.02;;;-2.20;99.90;;;;;;5093334;28;20043;-74
2023/03/08 02:03:03;;;;;;;44.50;16.65;;;-2.30;99.90;;;;;;5094152;28;20054;-74
2023/03/08 02:05:30;;;;;;;54.63;16.60;;;-2.30;99.90;;;;;;5060517;28;20048;-74
2023/03/08 02:07:56;;;;;;;48.80;16.10;;;-2.30;99.90;;;;;;5059852;28;20048;-75
2023/03/08 02:10:22;;;;;;;51.65;17.27;;;-2.20;99.90;;;;;;5076013;28;20300;-75
2023/03/08 02:12:48;;;;;;;51.72;17.42;;;-2.20;99.90;;;;;;5075418;28;20039;-74
2023/03/08 02:15:17;;;;;;;63.33;17.42;;;-2.20;99.90;;;;;;5059138;28;20048;-75
2023/03/08 02:17:43;;;;;;;55.53;17.05;;;-2.30;99.90;;;;;;5075869;28;20127;-75
2023/03/08 02:20:23;;;;;;;52.53;17.05;;;-2.20;99.90;;;;;;5093349;28;20098;-75
2023/03/08 02:22:52;;;;;;;58.90;18.83;;;-2.20;99.90;;;;;;5058944;28;20105;-75
2023/03/08 02:25:24;;;;;;;51.15;18.13;;;-2.20;99.90;;;;;;5075383;28;20131;-74
2023/03/08 02:27:51;;;;;;;58.20;19.05;;;-2.20;99.90;;;;;;5059678;28;20036;-73
2023/03/08 02:30:24;;;;;;;58.05;18.42;;;-2.30;99.90;;;;;;5093160;28;20059;-74
2023/03/08 02:32:50;;;;;;;55.55;17.33;;;-2.20;99.90;;;;;;5076309;28;20048;-74
2023/03/08 02:35:17;;;;;;;55.10;18.90;;;-2.30;99.90;;;;;;5075766;28;20169;-75
2023/03/08 02:37:42;;;;;;;62.80;19.73;;;-2.10;99.90;;;;;;5093601;28;20043;-73
2023/03/08 02:40:10;;;;;;;54.28;18.33;;;-2.10;99.90;;;;;;5058865;28;20052;-75
2023/03/08 02:42:36;;;;;;;;;;;-2.10;99.90;;;;;;5074999;28;20048;-73
2023/03/08 02:45:02;;;;;;;58.47;17.40;;;-2.00;99.90;;;;;;5058189;28;20010;-74
2023/03/08 02:47:28;;;;;;;59.13;19.85;;;-2.10;99.90;;;;;;5075246;28;20048;-73
2023/03/08 02:49:53;;;;;;;64.47;19.75;;;-2.00;99.90;;;;;;5075152;28;20108;-74
2023/03/08 02:52:19;;;;;;;65.28;20.90;;;-2.00;99.90;;;;;;5092730;28;20468;-75
2023/03/08 02:54:45;;;;;;;61.78;20.73;;;-2.00;99.90;;;;;;5059439;28;20044;-73
2023/03/08 02:57:11;;;;;;;67.55;22.80;;;-1.90;99.90;;;;;;5076046;28;20097;-74
2023/03/08 02:59:36;;;;;;;58.40;21.20;;;-2.00;99.90;;;;;;5076185;28;20040;-75
2023/03/08 03:02:02;;;;;;;59.22;19.42;;;-2.00;99.90;;;;;;5062329;28;20106;-74
2023/03/08 03:04:30;;;;;;;64.53;20.23;;;-2.00;99.90;;;;;;5096874;28;20040;-75
2023/03/08 03:06:56;;;;;;;66.18;21.33;;;-2.00;99.90;;;;;;5062051;28;20048;-75
2023/03/08 03:09:22;;;;;;;60.50;20.23;;;-1.90;99.90;;;;;;5097236;28;20353;-74
2023/03/08 03:11:48;;;;;;;64.18;20.73;;;-2.00;99.90;;;;;;5061941;28;20055;-74
2023/03/08 03:14:14;;;;;;;58.00;20.20;;;-2.00;99.90;;;;;;5062097;28;20501;-74
2023/03/08 03:16:39;;;;;;;69.18;22.05;;;-2.00;99.90;;;;;;5078665;28;20040;-74
2023/03/08 03:19:05;;;;;;;61.45;20.65;;;-1.90;99.90;;;;;;5062110;28;20044;-74
2023/03/08 03:21:31;;;;;;;56.95;20.33;;;-1.90;99.90;;;;;;5078499;28;20137;-75
2023/03/08 03:23:58;;;;;;;63.13;21.10;;;-2.00;99.90;;;;;;5078064;28;20065;-74
2023/03/08 03:26:24;;;;;;;60.33;20.30;;;-2.00;99.90;;;;;;5045267;28;20104;-76
2023/03/08 03:28:53;;;;;;;65.88;19.08;;;-2.00;99.90;;;;;;5096629;28;20075;-75
2023/03/08 03:31:21;;;;;;;59.33;19.60;;;-2.10;99.90;;;;;;5096474;28;20051;-74
2023/03/08 03:33:47;;;;;;;63.33;20.25;;;-2.00;99.90;;;;;;5078295;28;20052;-75
2023/03/08 03:36:16;;;;;;;49.88;18.70;;;-2.10;99.90;;;;;;5078593;28;20047;-76
2023/03/08 03:38:43;;;;;;;59.85;20.05;;;-2.10;99.90;;;;;;5096188;28;20054;-74
2023/03/08 03:41:15;;;;;;;58.58;19.38;;;-2.10;99.90;;;;;;5079300;28;20357;-75
2023/03/08 03:43:41;;;;;;;50.55;18.88;;;-2.10;99.90;;;;;;5078043;28;20079;-75
2023/03/08 03:46:10;;;;;;;59.25;20.35;;;-2.20;99.90;;;;;;5096749;28;20118;-75
2023/03/08 03:48:36;;;;;;;56.97;19.83;;;-2.10;99.90;;;;;;5095630;28;20052;-75
2023/03/08 03:51:11;;;;;;;56.35;19.42;;;-2.00;99.90;;;;;;5078206;28;20104;-74
2023/03/08 03:53:37;;;;;;;56.90;17.42;;;-2.10;99.90;;;;;;5078069;28;20044;-76
2023/03/08 03:56:07;;;;;;;52.00;20.25;;;-2.20;99.90;;;;;;5061702;28;20086;-75
2023/03/08 03:58:33;;;;;;;50.25;19.00;;;-2.10;99.90;;;;;;5095994;28;20067;-75
2023/03/08 04:01:00;;;;;;;44.85;16.88;;;-2.20;99.90;;;;;;5060794;28;20076;-75
2023/03/08 04:03:25;;;;;;;43.72;17.92;;;-2.20;99.90;;;;;;5061141;28;20475;-75
2023/03/08 04:05:51;;;;;;;55.35;18.50;;;-2.20;99.90;;;;;;5077605;28;20086;-75
2023/03/08 04:08:18;;;;;;;45.88;17.80;;;-2.10;99.90;;;;;;5077832;28;20055;-76
2023/03/08 04:10:43;;;;;;;44.92;18.52;;;-2.20;99.90;;;;;;5094720;28;20083;-76
2023/03/08 04:13:11;;;;;;;46.53;17.95;;;-2.20;99.90;;;;;;5060797;28;20083;-75
2023/03/08 04:15:36;;;;;;;;;;;-2.10;99.90;;;;;;5061243;28;20480;-76
2023/03/08 04:18:02;;;;;;;44.33;16.15;;;-2.10;99.90;;;;;;5077377;28;19920;-74
2023/03/08 04:20:28;;;;;;;48.83;17.20;;;-2.10;99.90;;;;;;5077303;28;20047;-75
2023/03/08 04:22:54;;;;;;;42.97;16.58;;;-2.10;99.90;;;;;;5076975;28;20055;-76
2023/03/08 04:25:19;;;;;;;42.67;17.02;;;-2.10;99.90;;;;;;5095427;28;20149;-75
2023/03/08 04:27:45;;;;;;;42.63;17.60;;;-2.10;99.90;;;;;;5077871;28;20204;-76
2023/03/08 04:30:12;;;;;;;45.42;16.50;;;-2.10;99.90;;;;;;5095632;28;20040;-74
2023/03/08 04:32:38;;;;;;;48.13;17.75;;;-2.20;99.90;;;;;;5077675;28;20122;-75
2023/03/08 04:35:04;;;;;;;43.08;16.58;;;-2.20;99.90;;;;;;5077068;28;20139;-75
2023/03/08 04:37:30;;;;;;;47.30;17.33;;;-2.20;99.90;;;;;;5061118;28;20485;-74
2023/03/08 04:39:56;;;;;;;39.00;16.17;;;-2.20;99.90;;;;;;5077363;28;20088;-74
2023/03/08 04:42:21;;;;;;;39.20;16.38;;;-2.20;99.90;;;;;;5094857;28;20040;-74
2023/03/08 04:44:47;;;;;;;43.75;18.83;;;-2.20;99.90;;;;;;5076953;28;20044;-74
2023/03/08 04:47:13;;;;;;;39.22;16.52;;;-2.20;99.90;;;;;;5077323;28;20051;-74
2023/03/08 04:49:39;;;;;;;39.95;16.38;;;-2.20;99.90;;;;;;5044374;28;20087;-75
2023/03/08 04:52:05;;;;;;;39.28;16.83;;;-2.20;99.90;;;;;;5045429;28;20101;-75
2023/03/08 04:54:30;;;;;;;43.38;16.95;;;-2.20;99.90;;;;;;5078102;28;20036;-74
2023/03/08 04:56:56;;;;;;;40.47;16.85;;;-2.10;99.90;;;;;;5078239;28;20048;-74
2023/03/08 04:59:22;;;;;;;41.80;15.93;;;-2.20;99.90;;;;;;5060788;28;20453;-74
2023/03/08 05:01:48;;;;;;;37.38;15.52;;;-2.30;99.90;;;;;;5059659;28;20040;-76
2023/03/08 05:04:14;;;;;;;39.38;15.95;;;-2.30;99.90;;;;;;5076812;28;20151;-75
2023/03/08 05:06:40;;;;;;;36.95;16.02;;;-2.20;99.90;;;;;;5043432;28;20157;-75
2023/03/08 05:09:06;;;;;;;35.53;14.75;;;-2.30;99.90;;;;;;5043224;28;20092;-75
2023/03/08 05:11:37;;;;;;;36.17;15.75;;;-2.30;99.90;;;;;;5061154;28;20472;-76
2023/03/08 05:14:03;;;;;;;33.80;14.75;;;-2.30;99.90;;;;;;5042823;28;20048;-75
2023/03/08 05:16:28;;;;;;;33.83;15.55;;;-2.30;99.90;;;;;;5094305;28;20040;-76
2023/03/08 05:18:54;;;;;;;35.38;15.50;;;-2.40;99.90;;;;;;5093889;28;20056;-76
2023/03/08 05:21:21;;;;;;;30.55;14.27;;;-2.30;99.90;;;;;;5093818;28;20043;-75
2023/03/08 05:23:47;;;;;;;38.75;15.00;;;-2.30;99.90;;;;;;5059157;28;20060;-74
2023/03/08 05:26:15;;;;;;;60.70;21.65;;;-2.30;99.90;;;;;;5059778;28;20048;-75
2023/03/08 05:28:41;;;;;;;68.45;23.63;;;-2.30;99.90;;;;;;5076138;28;20062;-76
2023/03/08 05:31:12;;;;;;;64.43;22.17;;;-2.30;99.90;;;;;;5093854;28;20126;-75
2023/03/08 05:33:39;;;;;;;61.28;21.15;;;-2.30;99.90;;;;;;5076031;28;20168;-75
2023/03/08 05:36:06;;;;;;;78.65;33.33;;;-2.30;99.90;;;;;;5059501;28;20467;-75
2023/03/08 05:38:32;;;;;;;44.20;19.40;;;-2.30;99.90;;;;;;5094339;28;20097;-76
2023/03/08 05:41:07;;;;;;;34.90;15.05;;;-2.30;99.90;;;;;;5059164;28;20036;-74
2023/03/08 05:43:33;;;;;;;34.28;15.00;;;-2.20;99.90;;;;;;5094312;28;20047;-75
2023/03/08 05:46:01;;;;;;;37.38;15.82;;;-2.20;99.90;;;;;;5061901;28;20040;-74
2023/03/08 05:48:28;;;;;;;36.30;15.25;;;-2.20;99.90;;;;;;5097083;28;20056;-76
2023/03/08 05:50:54;;;;;;;35.00;15.52;;;-2.20;99.90;;;;;;5080181;28;20052;-75
2023/03/08 05:53:21;;;;;;;35.20;15.73;;;-2.30;99.90;;;;;;5094954;28;20044;-77
2023/03/08 05:55:47;;;;;;;33.28;14.00;;;-2.20;99.90;;;;;;5076052;28;20047;-75
2023/03/08 05:58:13;;;;;;;30.42;13.82;;;-2.20;99.90;;;;;;5059282;28;20043;-76
2023/03/08 06:00:39;;;;;;;33.22;14.02;;;-2.20;99.90;;;;;;5059234;28;20040;-76
2023/03/08 06:03:04;;;;;;;29.23;12.93;;;-2.20;99.90;;;;;;5076350;28;20044;-77
2023/03/08 06:05:31;;;;;;;29.30;12.50;;;-2.20;99.90;;;;;;5076227;28;20039;-74
2023/03/08 06:07:57;;;;;;;28.80;12.75;;;-2.10;99.90;;;;;;5076544;28;20337;-76
2023/03/08 06:10:23;;;;;;;25.75;12.43;;;-2.10;99.90;;;;;;5076092;28;20400;-77
2023/03/08 06:12:49;;;;;;;27.45;12.55;;;-2.10;99.90;;;;;;5094342;28;20040;-75
2023/03/08 06:15:15;;;;;;;30.23;12.02;;;-2.20;99.90;;;;;;5059329;28;20466;-78
2023/03/08 06:17:41;;;;;;;25.83;11.95;;;-2.20;99.90;;;;;;5094399;28;20538;-76
2023/03/08 06:20:07;;;;;;;25.85;12.00;;;-2.20;99.90;;;;;;5042396;28;20044;-76
2023/03/08 06:22:34;;;;;;;29.13;12.57;;;-2.20;99.90;;;;;;5059701;28;20109;-76
2023/03/08 06:25:00;;;;;;;30.23;12.82;;;-2.10;99.90;;;;;;5058445;28;20524;-76
2023/03/08 06:27:29;;;;;;;31.35;13.23;;;-2.20;99.90;;;;;;5093761;28;20044;-76
2023/03/08 06:29:55;;;;;;;28.33;12.63;;;-2.10;99.90;;;;;;5058586;28;20515;-75
2023/03/08 06:32:20;;;;;;;25.48;11.80;;;-2.20;99.90;;;;;;5058961;28;20036;-77
2023/03/08 06:34:46;;;;;;;27.55;12.45;;;-2.10;99.90;;;;;;5043706;28;20047;-75
2023/03/08 06:37:13;;;;;;;29.45;13.15;;;-2.10;99.90;;;;;;5097586;28;20036;-76
2023/03/08 06:39:39;;;;;;;34.00;13.03;;;-2.10;99.90;;;;;;5063047;28;20047;-76
2023/03/08 06:42:04;;;;;;;30.60;13.35;;;-2.20;99.90;;;;;;5079637;28;20092;-76
2023/03/08 06:44:30;;;;;;;32.63;14.10;;;-2.10;99.90;;;;;;5097483;28;20051;-76
2023/03/08 06:46:56;;;;;;;30.92;13.50;;;-2.10;99.90;;;;;;5079188;28;20040;-77
2023/03/08 06:49:22;;;;;;;28.67;13.18;;;-2.10;99.90;;;;;;5097218;28;20055;-75
2023/03/08 06:51:48;;;;;;;34.90;13.63;;;-2.10;99.90;;;;;;5078936;28;20040;-75
2023/03/08 06:54:16;;;;;;;33.40;14.43;;;-2.00;99.90;;;;;;5079138;28;20044;-75
2023/03/08 06:56:46;;;;;;;37.80;14.70;;;-2.00;99.90;;;;;;5062725;28;20040;-75
2023/03/08 06:59:13;;;;;;;35.88;15.52;;;-2.00;99.90;;;;;;5062969;28;20044;-75
2023/03/08 07:01:39;;;;;;;77.53;18.50;;;-1.90;99.90;;;;;;5096651;28;20062;-75
2023/03/08 07:04:06;;;;;;;93.22;19.67;;;-1.80;99.90;;;;;;5079848;28;20040;-75
2023/03/08 07:06:32;;;;;;;57.38;17.73;;;-1.80;99.90;;;;;;5062154;28;20559;-75
2023/03/08 07:08:57;;;;;;;100.65;24.70;;;-1.70;99.90;;;;;;5045856;28;20097;-76
2023/03/08 07:11:25;;;;;;;124.10;22.52;;;-1.60;99.90;;;;;;5046887;28;20388;-74
2023/03/08 07:13:51;;;;;;;170.00;26.42;;;-1.50;99.90;;;;;;5078800;28;20376;-76
2023/03/08 07:16:17;;;;;;;127.60;21.58;;;-1.50;99.90;;;;;;5062230;28;20047;-76
2023/03/08 07:18:43;;;;;;;168.32;28.95;;;-1.50;99.90;;;;;;5078744;28;20051;-75
2023/03/08 07:21:09;;;;;;;158.40;27.08;;;-1.40;99.90;;;;;;5097165;28;20050;-76
2023/03/08 07:23:36;;;;;;;205.53;30.87;;;-1.40;99.90;;;;;;5096487;28;20486;-76
2023/03/08 07:26:06;;;;;;;137.88;28.08;;;-1.40;99.90;;;;;;5061896;28;20185;-76
2023/03/08 07:28:32;;;;;;;139.55;28.02;;;-1.40;99.90;;;;;;5096817;28;20325;-75
2023/03/08 07:30:57;;;;;;;204.70;29.42;;;-1.30;99.90;;;;;;5097096;28;20055;-75
2023/03/08 07:33:23;;;;;;;122.05;20.58;;;-1.30;99.90;;;;;;5096500;28;20051;-75
2023/03/08 07:35:49;;;;;;;116.53;23.75;;;-1.20;99.90;;;;;;5078443;28;20072;-75
2023/03/08 07:38:15;;;;;;;228.90;33.58;;;-1.20;99.90;;;;;;5045989;28;20044;-75
2023/03/08 07:40:41;;;;;;;97.90;24.08;;;-1.10;99.90;;;;;;5061583;28;20044;-76
2023/03/08 07:43:07;;;;;;;151.68;24.65;;;-1.00;99.90;;;;;;5061575;28;20482;-76
2023/03/08 07:45:33;;;;;;;146.05;27.23;;;-1.00;99.90;;;;;;5077940;28;20051;-75
2023/03/08 07:47:59;;;;;;;139.80;25.80;;;-0.90;99.90;;;;;;5078292;28;20048;-75
2023/03/08 07:50:25;;;;;;;165.55;26.83;;;-0.90;99.90;;;;;;5061901;28;20468;-75
2023/03/08 07:52:51;;;;;;;93.75;23.60;;;-0.80;99.90;;;;;;5096111;28;20071;-77
2023/03/08 07:55:16;;;;;;;118.32;22.83;;;-0.60;99.90;;;;;;5078043;28;20106;-76
2023/03/08 07:57:42;;;;;;;111.07;22.15;;;-0.50;99.90;;;;;;5077839;28;20044;-76
2023/03/08 08:00:09;;;;;;;94.97;21.52;;;-0.40;99.90;;;;;;5060264;28;20059;-76
2023/03/08 08:02:35;;;;;;;102.27;24.37;;;-0.40;99.90;;;;;;5077858;28;20040;-77
2023/03/08 08:05:03;;;;;;;155.80;23.60;;;-0.40;99.90;;;;;;5077808;28;20286;-76
2023/03/08 08:07:29;;;;;;;110.10;22.23;;;-0.30;99.90;;;;;;5061664;28;20606;-76
2023/03/08 08:09:55;;;;;;;80.30;22.52;;;-0.20;99.90;;;;;;5060567;28;20134;-76
2023/03/08 08:12:20;;;;;;;149.40;22.65;;;-0.20;99.90;;;;;;5077564;28;20109;-75
2023/03/08 08:14:46;;;;;;;94.20;21.33;;;-0.20;99.90;;;;;;5077185;28;20044;-75
2023/03/08 08:17:12;;;;;;;85.95;19.50;;;-0.20;99.90;;;;;;5077863;28;20043;-76
2023/03/08 08:19:38;;;;;;;86.65;19.67;;;-0.10;99.90;;;;;;5078443;28;20044;-75
2023/03/08 08:22:03;;;;;;;68.38;14.48;;;-0.20;99.90;;;;;;5060808;28;20052;-75
2023/03/08 08:24:31;;;;;;;75.53;21.02;;;-0.20;99.90;;;;;;5095743;28;20052;-74
2023/03/08 08:26:57;;;;;;;74.68;18.17;;;-0.20;99.90;;;;;;5061032;28;20055;-74
2023/03/08 08:29:23;;;;;;;89.47;17.65;;;-0.30;99.90;;;;;;5096148;28;20432;-75
2023/03/08 08:31:51;;;;;;;61.58;18.38;;;-0.20;99.90;;;;;;5077815;28;20091;-74
2023/03/08 08:34:18;;;;;;;72.80;20.00;;;-0.20;99.90;;;;;;5078077;28;20081;-74
2023/03/08 08:36:44;;;;;;;68.57;16.48;;;-0.10;99.90;;;;;;5077346;28;20056;-75
2023/03/08 08:39:10;;;;;;;52.67;16.13;;;-0.10;99.90;;;;;;5077107;28;20058;-75
2023/03/08 08:41:36;;;;;;;54.75;16.38;;;0.00;99.90;;;;;;5076977;28;20085;-74
2023/03/08 08:44:02;;;;;;;47.72;16.92;;;0.00;99.90;;;;;;5077105;28;20036;-74
2023/03/08 08:46:29;;;;;;;53.17;16.58;;;0.10;99.90;;;;;;5077183;28;20043;-75
2023/03/08 08:48:56;;;;;;;;;;;0.10;99.90;;;;;;5060272;28;20479;-76
2023/03/08 08:51:22;;;;;;;51.08;16.67;;;0.20;99.90;;;;;;5076629;28;19927;-76
2023/03/08 08:53:48;;;;;;;55.08;15.18;;;0.20;99.90;;;;;;5059983;28;20040;-75
2023/03/08 08:56:22;;;;;;;49.95;15.77;;;0.20;99.90;;;;;;5060787;28;20052;-76
2023/03/08 08:58:48;;;;;;;56.10;15.48;;;0.40;99.90;;;;;;5094089;28;20123;-76
2023/03/08 09:01:17;;;;;;;52.55;16.75;;;0.40;99.90;;;;;;5094797;28;20136;-75
2023/03/08 09:03:44;;;;;;;53.30;19.20;;;0.50;99.90;;;;;;5094486;28;20040;-74
2023/03/08 09:06:16;;;;;;;52.20;16.67;;;0.60;99.90;;;;;;5060033;28;20044;-75
2023/03/08 09:08:42;;;;;;;58.83;16.70;;;0.70;99.90;;;;;;5061040;28;20421;-76
2023/03/08 09:11:09;;;;;;;47.70;17.85;;;0.70;99.90;;;;;;5059864;28;20162;-75
2023/03/08 09:13:40;;;;;;;45.78;17.73;;;0.80;99.90;;;;;;5094368;28;20123;-75
2023/03/08 09:16:16;;;;;;;42.85;16.42;;;0.80;99.90;;;;;;5094347;28;20073;-75
2023/03/08 09:18:42;;;;;;;43.75;15.27;;;0.90;99.90;;;;;;5094584;28;20083;-75
2023/03/08 09:21:07;;;;;;;60.47;16.52;;;0.90;99.90;;;;;;5093929;28;20088;-75
2023/03/08 09:23:33;;;;;;;47.65;18.05;;;1.00;99.90;;;;;;5075573;28;20060;-76
2023/03/08 09:25:59;;;;;;;43.50;17.13;;;0.90;99.90;;;;;;5060072;28;20052;-74
2023/03/08 09:28:25;;;;;;;48.13;18.35;;;1.00;99.90;;;;;;5076399;28;20171;-75
2023/03/08 09:30:50;;;;;;;44.80;18.30;;;1.10;99.90;;;;;;5076165;28;20065;-75
2023/03/08 09:33:16;;;;;;;48.75;15.70;;;1.20;99.90;;;;;;5075995;28;20080;-74
2023/03/08 09:35:42;;;;;;;37.28;14.60;;;1.20;99.90;;;;;;5076045;28;20083;-77
2023/03/08 09:38:08;;;;;;;39.13;14.38;;;1.30;99.90;;;;;;5059587;28;20052;-76
2023/03/08 09:40:47;;;;;;;30.38;10.32;;;1.40;99.90;;;;;;5076164;28;20091;-75
2023/03/08 09:43:25;;;;;;;37.90;13.30;;;1.40;99.90;;;;;;5094052;28;20040;-75
2023/03/08 09:45:53;;;;;;;38.70;13.15;;;1.40;99.90;;;;;;5094575;28;20127;-76
2023/03/08 09:48:28;;;;;;;46.42;16.77;;;1.30;99.90;;;;;;5075365;28;20043;-75
2023/03/08 09:50:58;;;;;;;42.67;14.82;;;1.40;99.90;;;;;;5060239;28;20058;-75
2023/03/08 09:53:37;;;;;;;42.17;15.20;;;1.40;99.90;;;;;;5093708;28;20106;-74
2023/03/08 09:56:24;;;;;;;43.33;15.00;;;1.60;99.90;;;;;;5093706;28;20048;-75
2023/03/08 09:59:00;;;;;;;44.60;15.98;;;1.70;99.90;;;;;;5059336;28;20126;-76
2023/03/08 10:01:44;;;;;;;35.67;11.43;;;1.70;99.90;;;;;;5059230;28;20044;-75
2023/03/08 10:04:28;;;;;;;42.03;15.43;;;1.90;99.90;;;;;;5076479;28;20048;-75
2023/03/08 10:07:20;;;;;;;42.40;14.32;;;2.00;99.90;;;;;;5076416;28;20400;-76
2023/03/08 10:09:48;;;;;;;43.97;14.65;;;2.00;99.90;;;;;;5058066;28;20047;-74
2023/03/08 10:13:06;;;;;;;34.50;11.95;;;2.10;99.90;;;;;;5093834;28;20434;-74
2023/03/08 10:15:39;;;;;;;48.20;15.85;;;2.20;99.90;;;;;;5030812;28;20049;-74
2023/03/08 10:18:16;;;;;;;53.22;19.02;;;2.30;99.90;;;;;;5014811;28;20068;-75
2023/03/08 10:20:42;;;;;;;52.60;19.17;;;2.30;99.90;;;;;;5056127;28;20415;-75
2023/03/08 10:23:19;;;;;;;53.97;21.05;;;2.40;99.90;;;;;;5058325;28;20121;-74
2023/03/08 10:25:47;;;;;;;53.92;20.45;;;2.50;99.90;;;;;;5059357;28;20077;-75
2023/03/08 10:28:21;;;;;;;69.13;24.40;;;2.50;99.90;;;;;;5093896;28;20361;-74
2023/03/08 10:30:49;;;;;;;53.13;17.23;;;2.60;99.90;;;;;;5093690;28;20044;-74
2023/03/08 10:33:17;;;;;;;48.50;17.17;;;2.70;99.90;;;;;;5075113;28;20048;-74
2023/03/08 10:35:56;;;;;;;47.15;15.90;;;2.70;99.90;;;;;;5075938;28;20431;-76
2023/03/08 10:38:24;;;;;;;44.40;15.40;;;2.70;99.90;;;;;;5075534;28;20044;-75
2023/03/08 10:41:02;;;;;;;49.75;15.13;;;2.90;99.90;;;;;;5093138;28;20036;-76
2023/03/08 10:43:32;;;;;;;52.60;15.70;;;3.10;99.90;;;;;;5093500;28;20086;-75
2023/03/08 10:46:16;;;;;;;45.88;15.13;;;3.20;99.90;;;;;;5075049;28;20055;-74
2023/03/08 10:48:42;;;;;;;48.03;15.00;;;3.20;99.90;;;;;;5059411;28;20052;-74
2023/03/08 10:51:20;;;;;;;51.30;15.43;;;3.30;99.90;;;;;;5075418;28;20121;-76
2023/03/08 10:54:03;;;;;;;52.05;15.80;;;3.40;99.90;;;;;;5059210;28;20427;-75
2023/03/08 10:56:51;;;;;;;52.25;15.27;;;3.50;99.90;;;;;;5093344;28;20380;-75
2023/03/08 10:59:28;;;;;;;60.67;16.13;;;3.60;99.90;;;;;;5075959;28;20044;-76
2023/03/08 11:01:58;;;;;;;63.60;16.25;;;3.70;99.90;;;;;;5075435;28;20044;-75
2023/03/08 11:04:26;;;;;;;75.70;17.65;;;3.70;99.90;;;;;;5075323;28;20047;-74
2023/03/08 11:06:53;;;;;;;75.32;18.55;;;3.80;99.90;;;;;;5075206;28;20052;-74
2023/03/08 11:09:30;;;;;;;64.10;16.17;;;3.80;99.90;;;;;;5058946;28;20047;-76
2023/03/08 11:11:58;;;;;;;54.83;14.48;;;4.00;99.90;;;;;;5093777;28;20118;-75
2023/03/08 11:14:24;;;;;;;45.13;12.60;;;4.00;99.90;;;;;;5058679;28;20055;-75
2023/03/08 11:17:18;;;;;;;42.78;12.55;;;4.10;99.90;;;;;;5058669;28;20063;-77
2023/03/08 11:19:52;;;;;;;40.03;12.20;;;4.20;99.90;;;;;;5093750;28;20191;-75
2023/03/08 11:22:49;;;;;;;43.42;13.00;;;4.20;99.90;;;;;;5097119;28;20048;-75
2023/03/08 11:25:54;;;;;;;43.75;12.23;;;4.30;99.90;;;;;;5097634;28;20399;-77
2023/03/08 11:28:57;;;;;;;45.78;11.02;;;4.30;99.90;;;;;;5079760;28;20376;-78
2023/03/08 11:31:55;;;;;;;40.08;11.57;;;4.30;99.90;;;;;;5078929;28;20048;-76
2023/03/08 11:34:39;;;;;;;49.70;12.88;;;4.30;99.90;;;;;;5060943;28;20444;-75
2023/03/08 11:37:28;;;;;;;42.20;12.63;;;4.20;99.90;;;;;;5096267;28;20067;-75
2023/03/08 11:40:24;;;;;;;56.30;14.77;;;4.30;99.90;;;;;;5097164;28;20101;-75
2023/03/08 11:43:30;;;;;;;52.30;12.93;;;4.40;99.90;;;;;;5079615;28;20127;-76
2023/03/08 11:46:16;;;;;;;41.58;13.07;;;4.40;99.90;;;;;;5072605;28;20081;-74
2023/03/08 11:49:10;;;;;;;43.07;11.40;;;4.50;99.90;;;;;;5079253;28;20044;-75
2023/03/08 11:52:11;;;;;;;40.72;11.30;;;4.60;99.90;;;;;;5055846;28;20087;-74
2023/03/08 11:54:39;;;;;;;44.10;12.20;;;4.70;99.90;;;;;;5017294;28;20122;-77
2023/03/08 11:57:09;;;;;;;45.22;12.60;;;4.80;99.90;;;;;;5084150;28;20060;-75
2023/03/08 11:59:55;;;;;;;48.25;13.32;;;4.70;99.90;;;;;;5078529;28;20048;-76
2023/03/08 12:02:28;;;;;;;34.58;9.88;;;4.80;99.90;;;;;;5097005;28;20075;-75
2023/03/08 12:04:57;;;;;;;48.38;12.82;;;4.90;99.90;;;;;;5062298;28;20063;-75
2023/03/08 12:07:31;;;;;;;46.70;13.63;;;4.80;99.90;;;;;;5079327;28;20056;-77
2023/03/08 12:10:27;;;;;;;47.67;12.27;;;4.60;99.90;;;;;;5063060;28;20078;-79
2023/03/08 12:13:17;;;;;;;54.70;13.98;;;4.60;99.90;;;;;;5078976;28;20036;-78
2023/03/08 12:15:58;;;;;;;48.53;13.25;;;4.70;99.90;;;;;;5078275;28;20446;-74
2023/03/08 12:18:34;;;;;;;51.95;12.63;;;4.70;99.90;;;;;;5097607;28;20111;-74
2023/03/08 12:21:29;;;;;;;44.03;12.45;;;4.60;99.90;;;;;;5096718;28;20044;-75
2023/03/08 12:24:17;;;;;;;45.97;12.93;;;4.50;99.90;;;;;;5096076;28;20064;-76
2023/03/08 12:26:54;;;;;;;55.58;13.10;;;4.60;99.90;;;;;;5095587;28;20082;-76
2023/03/08 12:29:52;;;;;;;49.15;12.27;;;4.70;99.90;;;;;;5095895;28;20048;-77
2023/03/08 12:32:22;;;;;;;45.60;11.18;;;4.70;99.90;;;;;;5095262;28;20426;-76
2023/03/08 12:35:24;;;;;;;42.28;10.80;;;4.60;99.90;;;;;;5043720;28;20124;-77
2023/03/08 12:38:24;;;;;;;40.92;10.77;;;4.60;99.90;;;;;;5091598;28;20048;-77
2023/03/08 12:40:53;;;;;;;48.13;12.85;;;4.50;99.90;;;;;;5087773;28;20055;-74
2023/03/08 12:43:18;;;;;;;51.47;13.05;;;4.60;99.90;;;;;;5060709;28;20051;-77
2023/03/08 12:45:46;;;;;;;44.22;12.02;;;4.50;99.90;;;;;;5095033;28;20040;-77